createdAt,value
2023-04-02T00:02:23.477Z,63.50
2023-04-02T00:05:19.545Z,63.40
2023-04-02T00:07:58.109Z,63.40
2023-04-02T00:10:32.383Z,63.50
2023-04-02T00:13:18.084Z,63.50
2023-04-02T00:15:50.165Z,63.40
2023-04-02T00:18:20.819Z,63.40
2023-04-02T00:21:12.281Z,63.40
2023-04-02T00:23:42.770Z,63.50
2023-04-02T00:26:25.435Z,63.40
2023-04-02T00:28:52.852Z,63.50
2023-04-02T00:31:21.218Z,63.50
2023-04-02T00:33:49.923Z,63.50
2023-04-02T00:36:20.274Z,63.60
2023-04-02T00:38:48.860Z,63.60
2023-04-02T00:41:24.078Z,63.60
2023-04-02T00:43:53.746Z,63.60
2023-04-02T00:46:30.154Z,63.60
2023-04-02T00:49:10.496Z,63.60
2023-04-02T00:51:44.486Z,63.60
2023-04-02T00:54:15.804Z,63.60
2023-04-02T00:56:47.348Z,63.60
2023-04-02T00:59:48.200Z,63.60
2023-04-02T01:02:17.460Z,63.70
2023-04-02T01:05:04.112Z,63.60
2023-04-02T01:08:12.336Z,63.70
2023-04-02T01:11:43.635Z,63.70
2023-04-02T01:14:34.617Z,63.70
2023-04-02T01:17:22.455Z,63.70
2023-04-02T01:20:43.921Z,63.60
2023-04-02T01:23:35.747Z,63.70
2023-04-02T01:26:52.573Z,63.70
2023-04-02T01:29:35.823Z,63.70
2023-04-02T01:32:08.096Z,63.80
2023-04-02T01:34:36.389Z,63.70
2023-04-02T01:37:36.900Z,63.80
2023-04-02T01:40:34.174Z,63.90
2023-04-02T01:43:19.364Z,63.80
2023-04-02T01:45:47.022Z,63.90
2023-04-02T01:48:22.549Z,63.80
2023-04-02T01:50:52.815Z,63.90
2023-04-02T01:53:23.754Z,63.90
2023-04-02T01:55:56.750Z,63.90
2023-04-02T01:58:28.368Z,63.90
2023-04-02T02:01:17.117Z,63.90
2023-04-02T02:03:45.641Z,64.00
2023-04-02T02:06:18.954Z,63.90
2023-04-02T02:09:04.688Z,63.90
2023-04-02T02:11:36.419Z,64.00
2023-04-02T02:14:18.653Z,63.90
2023-04-02T02:16:47.723Z,64.00
2023-04-02T02:19:46.168Z,63.90
2023-04-02T02:22:31.763Z,64.00
2023-04-02T02:25:07.419Z,64.00
2023-04-02T02:27:59.423Z,64.00
2023-04-02T02:30:43.963Z,64.00
2023-04-02T02:33:37.176Z,64.00
2023-04-02T02:36:33.630Z,64.00
2023-04-02T02:39:14.463Z,64.00
2023-04-02T02:41:56.279Z,64.00
2023-04-02T02:44:33.357Z,64.00
2023-04-02T02:47:10.687Z,64.00
2023-04-02T02:49:47.042Z,64.00
2023-04-02T02:52:25.396Z,64.10
2023-04-02T02:55:18.741Z,64.10
2023-04-02T02:58:01.930Z,64.10
2023-04-02T03:00:35.670Z,64.10
2023-04-02T03:03:09.696Z,64.10
2023-04-02T03:05:39.374Z,64.10
2023-04-02T03:08:21.227Z,64.10
2023-04-02T03:11:22.590Z,64.20
2023-04-02T03:13:54.657Z,64.10
2023-04-02T03:16:29.825Z,64.10
2023-04-02T03:19:18.274Z,64.30
2023-04-02T03:21:56.219Z,64.20
2023-04-02T03:25:03.398Z,64.20
2023-04-02T03:27:38.753Z,64.20
2023-04-02T03:30:18.360Z,64.20
2023-04-02T03:32:49.733Z,64.20
2023-04-02T03:35:36.239Z,64.20
2023-04-02T03:38:36.440Z,64.30
2023-04-02T03:41:20.131Z,64.30
2023-04-02T03:43:56.640Z,64.30
2023-04-02T03:46:41.168Z,64.20
2023-04-02T03:49:37.170Z,64.30
2023-04-02T03:52:37.052Z,64.30
2023-04-02T03:55:23.012Z,64.30
2023-04-02T03:58:25.199Z,64.30
2023-04-02T04:01:12.572Z,64.20
2023-04-02T04:03:50.692Z,64.30
2023-04-02T04:06:29.816Z,64.30
2023-04-02T04:09:20.937Z,65.20
2023-04-02T04:12:09.137Z,64.30
2023-04-02T04:14:44.044Z,64.30
2023-04-02T04:17:51.266Z,64.30
2023-04-02T04:20:36.595Z,64.30
2023-04-02T04:23:41.305Z,64.30
2023-04-02T04:26:31.090Z,64.30
2023-04-02T04:29:38.204Z,64.30
2023-04-02T04:32:27.733Z,64.30
2023-04-02T04:35:19.657Z,64.30
2023-04-02T04:37:49.776Z,64.30
2023-04-02T04:40:36.244Z,64.30
2023-04-02T04:43:18.256Z,64.40
2023-04-02T04:45:55.738Z,64.40
2023-04-02T04:48:39.251Z,64.40
2023-04-02T04:51:30.022Z,64.40
2023-04-02T04:53:58.479Z,64.40
2023-04-02T04:56:30.993Z,64.30
2023-04-02T04:59:21.865Z,64.40
2023-04-02T05:02:13.951Z,65.30
2023-04-02T05:04:44.763Z,64.40
2023-04-02T05:07:36.840Z,64.40
2023-04-02T05:10:20.296Z,64.40
2023-04-02T05:13:22.978Z,64.40
2023-04-02T05:16:13.973Z,64.40
2023-04-02T05:19:03.104Z,64.40
2023-04-02T05:21:51.064Z,64.50
2023-04-02T05:24:53.064Z,64.40
2023-04-02T05:27:44.799Z,64.50
2023-04-02T05:30:25.856Z,64.50
2023-04-02T05:33:28.488Z,64.50
2023-04-02T05:36:14.166Z,64.50
2023-04-02T05:38:48.791Z,64.40
2023-04-02T05:41:30.454Z,64.40
2023-04-02T05:44:28.845Z,64.40
2023-04-02T05:47:04.269Z,64.50
2023-04-02T05:49:55.517Z,64.50
2023-04-02T05:52:31.082Z,64.50
2023-04-02T05:55:12.564Z,64.50
2023-04-02T05:58:34.510Z,64.60
2023-04-02T06:01:42.243Z,64.60
2023-04-02T06:04:45.700Z,64.50
2023-04-02T06:07:23.234Z,64.40
2023-04-02T06:10:04.971Z,64.60
2023-04-02T06:12:43.029Z,64.50
2023-04-02T06:15:23.897Z,64.50
2023-04-02T06:18:20.761Z,64.50
2023-04-02T06:20:49.567Z,64.50
2023-04-02T06:23:30.805Z,64.50
2023-04-02T06:26:28.086Z,64.50
2023-04-02T06:29:04.837Z,64.60
2023-04-02T06:31:40.598Z,64.50
2023-04-02T06:34:19.727Z,64.60
2023-04-02T06:37:05.460Z,64.60
2023-04-02T06:39:35.647Z,64.60
2023-04-02T06:42:22.154Z,64.50
2023-04-02T06:45:02.183Z,64.60
2023-04-02T06:47:50.427Z,64.60
2023-04-02T06:50:48.792Z,64.60
2023-04-02T06:53:41.090Z,64.60
2023-04-02T06:56:44.334Z,64.60
2023-04-02T06:59:23.816Z,64.60
2023-04-02T07:02:06.893Z,64.60
2023-04-02T07:04:40.629Z,64.60
2023-04-02T07:07:08.831Z,64.70
2023-04-02T07:09:42.729Z,65.10
2023-04-02T07:12:30.091Z,64.90
2023-04-02T07:15:10.031Z,64.80
2023-04-02T07:17:47.996Z,64.70
2023-04-02T07:20:41.796Z,64.80
